sensor_id;sensor_type;location;lat;lon;timestamp;temperature;humidity
76577;DHT22;65441;44.748;37.600;2023-05-10T00:00:41;10.10;89.01
76577;DHT22;65441;44.748;37.600;2023-05-10T00:03:10;10.11;88.25
76577;DHT22;65441;44.748;37.600;2023-05-10T00:05:39;10.09;88.73
76577;DHT22;65441;44.748;37.600;2023-05-10T00:08:09;10.12;88.37
76577;DHT22;65441;44.748;37.600;2023-05-10T00:10:38;10.12;88.36
76577;DHT22;65441;44.748;37.600;2023-05-10T00:13:08;10.08;88.51
76577;DHT22;65441;44.748;37.600;2023-05-10T00:15:37;10.00;88.76
76577;DHT22;65441;44.748;37.600;2023-05-10T00:18:06;10.03;88.38
76577;DHT22;65441;44.748;37.600;2023-05-10T00:20:35;10.05;88.57
76577;DHT22;65441;44.748;37.600;2023-05-10T00:23:03;10.00;88.44
76577;DHT22;65441;44.748;37.600;2023-05-10T00:25:34;9.98;87.90
76577;DHT22;65441;44.748;37.600;2023-05-10T00:28:03;9.97;88.44
76577;DHT22;65441;44.748;37.600;2023-05-10T00:30:32;9.92;88.21
76577;DHT22;65441;44.748;37.600;2023-05-10T00:33:02;9.81;88.66
76577;DHT22;65441;44.748;37.600;2023-05-10T00:35:31;9.90;88.09
76577;DHT22;65441;44.748;37.600;2023-05-10T00:38:01;9.90;88.49
76577;DHT22;65441;44.748;37.600;2023-05-10T00:40:30;10.00;87.83
76577;DHT22;65441;44.748;37.600;2023-05-10T00:43:05;9.97;88.26
76577;DHT22;65441;44.748;37.600;2023-05-10T00:45:35;9.97;88.35
76577;DHT22;65441;44.748;37.600;2023-05-10T00:48:05;9.95;88.12
76577;DHT22;65441;44.748;37.600;2023-05-10T00:50:34;9.95;88.23
76577;DHT22;65441;44.748;37.600;2023-05-10T00:53:03;9.99;88.25
76577;DHT22;65441;44.748;37.600;2023-05-10T00:55:32;9.99;87.88
76577;DHT22;65441;44.748;37.600;2023-05-10T00:58:01;9.99;87.73
76577;DHT22;65441;44.748;37.600;2023-05-10T01:00:32;9.89;87.64
76577;DHT22;65441;44.748;37.600;2023-05-10T01:03:02;9.80;87.59
76577;DHT22;65441;44.748;37.600;2023-05-10T01:05:31;9.74;87.63
76577;DHT22;65441;44.748;37.600;2023-05-10T01:08:01;9.78;86.80
76577;DHT22;65441;44.748;37.600;2023-05-10T01:10:31;9.67;87.28
76577;DHT22;65441;44.748;37.600;2023-05-10T01:13:00;9.64;88.36
76577;DHT22;65441;44.748;37.600;2023-05-10T01:15:32;9.74;87.54
76577;DHT22;65441;44.748;37.600;2023-05-10T01:18:02;9.74;87.31
76577;DHT22;65441;44.748;37.600;2023-05-10T01:20:37;9.62;88.33
76577;DHT22;65441;44.748;37.600;2023-05-10T01:26:23;9.56;87.00
76577;DHT22;65441;44.748;37.600;2023-05-10T01:29:23;9.45;87.70
76577;DHT22;65441;44.748;37.600;2023-05-10T01:32:19;9.50;87.54
76577;DHT22;65441;44.748;37.600;2023-05-10T01:34:56;9.47;88.22
76577;DHT22;65441;44.748;37.600;2023-05-10T01:37:33;9.51;88.83
76577;DHT22;65441;44.748;37.600;2023-05-10T01:40:13;9.49;88.86
76577;DHT22;65441;44.748;37.600;2023-05-10T01:42:51;9.54;88.93
76577;DHT22;65441;44.748;37.600;2023-05-10T01:45:27;9.48;89.42
76577;DHT22;65441;44.748;37.600;2023-05-10T01:48:05;9.48;88.93
76577;DHT22;65441;44.748;37.600;2023-05-10T01:50:36;9.45;89.08
76577;DHT22;65441;44.748;37.600;2023-05-10T01:53:07;9.46;89.17
76577;DHT22;65441;44.748;37.600;2023-05-10T01:55:42;9.47;88.83
76577;DHT22;65441;44.748;37.600;2023-05-10T01:58:15;9.56;88.35
76577;DHT22;65441;44.748;37.600;2023-05-10T02:00:47;9.53;88.57
76577;DHT22;65441;44.748;37.600;2023-05-10T02:03:21;9.59;88.36
76577;DHT22;65441;44.748;37.600;2023-05-10T02:05:52;9.60;88.57
76577;DHT22;65441;44.748;37.600;2023-05-10T02:08:23;9.55;88.65
76577;DHT22;65441;44.748;37.600;2023-05-10T02:10:56;9.60;88.04
76577;DHT22;65441;44.748;37.600;2023-05-10T02:13:29;9.56;88.38
76577;DHT22;65441;44.748;37.600;2023-05-10T02:16:01;9.61;88.72
76577;DHT22;65441;44.748;37.600;2023-05-10T02:18:33;9.56;89.12
76577;DHT22;65441;44.748;37.600;2023-05-10T02:21:04;9.61;89.12
76577;DHT22;65441;44.748;37.600;2023-05-10T02:23:34;9.56;89.50
76577;DHT22;65441;44.748;37.600;2023-05-10T02:26:04;9.63;88.95
76577;DHT22;65441;44.748;37.600;2023-05-10T02:28:35;9.65;88.75
76577;DHT22;65441;44.748;37.600;2023-05-10T02:31:05;9.64;88.73
76577;DHT22;65441;44.748;37.600;2023-05-10T02:33:37;9.61;89.26
76577;DHT22;65441;44.748;37.600;2023-05-10T02:36:09;9.60;88.98
76577;DHT22;65441;44.748;37.600;2023-05-10T02:38:39;9.67;88.87
76577;DHT22;65441;44.748;37.600;2023-05-10T02:41:08;9.63;89.36
76577;DHT22;65441;44.748;37.600;2023-05-10T02:43:39;9.64;89.70
76577;DHT22;65441;44.748;37.600;2023-05-10T02:46:09;9.68;89.71
76577;DHT22;65441;44.748;37.600;2023-05-10T02:48:39;9.72;89.68
76577;DHT22;65441;44.748;37.600;2023-05-10T02:51:11;9.80;89.84
76577;DHT22;65441;44.748;37.600;2023-05-10T02:53:43;9.85;89.78
76577;DHT22;65441;44.748;37.600;2023-05-10T02:56:15;9.96;89.38
76577;DHT22;65441;44.748;37.600;2023-05-10T02:58:48;9.94;89.41
76577;DHT22;65441;44.748;37.600;2023-05-10T03:01:16;9.95;89.44
76577;DHT22;65441;44.748;37.600;2023-05-10T03:03:47;9.96;89.47
76577;DHT22;65441;44.748;37.600;2023-05-10T03:06:16;10.06;89.23
76577;DHT22;65441;44.748;37.600;2023-05-10T03:08:45;10.04;89.40
76577;DHT22;65441;44.748;37.600;2023-05-10T03:11:31;10.04;89.80
76577;DHT22;65441;44.748;37.600;2023-05-10T03:14:11;10.07;89.57
76577;DHT22;65441;44.748;37.600;2023-05-10T03:16:45;10.09;89.74
76577;DHT22;65441;44.748;37.600;2023-05-10T03:19:24;10.11;89.91
76577;DHT22;65441;44.748;37.600;2023-05-10T03:21:55;10.16;89.54
76577;DHT22;65441;44.748;37.600;2023-05-10T03:24:33;10.13;89.47
76577;DHT22;65441;44.748;37.600;2023-05-10T03:27:04;10.26;89.31
76577;DHT22;65441;44.748;37.600;2023-05-10T03:29:34;10.36;89.26
76577;DHT22;65441;44.748;37.600;2023-05-10T03:32:03;10.35;88.90
76577;DHT22;65441;44.748;37.600;2023-05-10T03:34:41;10.30;88.64
76577;DHT22;65441;44.748;37.600;2023-05-10T03:37:10;10.23;88.76
76577;DHT22;65441;44.748;37.600;2023-05-10T03:39:39;10.15;89.10
76577;DHT22;65441;44.748;37.600;2023-05-10T03:42:10;10.25;89.36
76577;DHT22;65441;44.748;37.600;2023-05-10T03:44:39;10.31;88.80
76577;DHT22;65441;44.748;37.600;2023-05-10T03:47:09;10.39;88.94
76577;DHT22;65441;44.748;37.600;2023-05-10T03:49:39;10.41;89.05
76577;DHT22;65441;44.748;37.600;2023-05-10T03:52:08;10.46;88.57
76577;DHT22;65441;44.748;37.600;2023-05-10T03:54:37;10.45;88.40
76577;DHT22;65441;44.748;37.600;2023-05-10T03:57:06;10.40;88.39
76577;DHT22;65441;44.748;37.600;2023-05-10T03:59:35;10.50;88.74
76577;DHT22;65441;44.748;37.600;2023-05-10T04:02:04;10.55;88.51
76577;DHT22;65441;44.748;37.600;2023-05-10T04:04:32;10.55;88.16
76577;DHT22;65441;44.748;37.600;2023-05-10T04:07:03;10.59;88.49
76577;DHT22;65441;44.748;37.600;2023-05-10T04:09:31;10.77;88.71
76577;DHT22;65441;44.748;37.600;2023-05-10T04:12:00;10.83;88.53
76577;DHT22;65441;44.748;37.600;2023-05-10T04:14:29;10.95;87.62
76577;DHT22;65441;44.748;37.600;2023-05-10T04:16:58;10.94;86.75
76577;DHT22;65441;44.748;37.600;2023-05-10T04:19:29;11.03;86.54
76577;DHT22;65441;44.748;37.600;2023-05-10T04:21:58;11.17;87.67
76577;DHT22;65441;44.748;37.600;2023-05-10T04:24:29;11.14;86.35
76577;DHT22;65441;44.748;37.600;2023-05-10T04:26:57;11.19;86.19
76577;DHT22;65441;44.748;37.600;2023-05-10T04:29:26;11.18;86.03
76577;DHT22;65441;44.748;37.600;2023-05-10T04:31:55;11.20;84.55
76577;DHT22;65441;44.748;37.600;2023-05-10T04:34:24;11.44;86.48
76577;DHT22;65441;44.748;37.600;2023-05-10T04:36:53;12.02;87.97
76577;DHT22;65441;44.748;37.600;2023-05-10T04:39:21;12.31;82.94
76577;DHT22;65441;44.748;37.600;2023-05-10T04:41:51;12.72;82.99
76577;DHT22;65441;44.748;37.600;2023-05-10T04:44:20;12.73;80.37
76577;DHT22;65441;44.748;37.600;2023-05-10T04:46:49;12.79;79.25
76577;DHT22;65441;44.748;37.600;2023-05-10T04:49:17;12.94;81.81
76577;DHT22;65441;44.748;37.600;2023-05-10T04:51:47;13.17;77.81
76577;DHT22;65441;44.748;37.600;2023-05-10T04:54:15;13.06;77.39
76577;DHT22;65441;44.748;37.600;2023-05-10T04:56:44;13.14;83.17
76577;DHT22;65441;44.748;37.600;2023-05-10T04:59:14;13.37;84.66
76577;DHT22;65441;44.748;37.600;2023-05-10T05:01:43;13.51;80.88
76577;DHT22;65441;44.748;37.600;2023-05-10T05:04:12;13.55;78.05
76577;DHT22;65441;44.748;37.600;2023-05-10T05:06:41;13.53;76.57
76577;DHT22;65441;44.748;37.600;2023-05-10T05:09:10;13.83;80.72
76577;DHT22;65441;44.748;37.600;2023-05-10T05:11:39;13.84;78.36
76577;DHT22;65441;44.748;37.600;2023-05-10T05:14:08;14.04;75.86
76577;DHT22;65441;44.748;37.600;2023-05-10T05:16:38;13.71;74.96
76577;DHT22;65441;44.748;37.600;2023-05-10T05:19:07;13.69;75.58
76577;DHT22;65441;44.748;37.600;2023-05-10T05:21:36;13.89;78.07
76577;DHT22;65441;44.748;37.600;2023-05-10T05:24:05;13.97;72.41
76577;DHT22;65441;44.748;37.600;2023-05-10T05:26:34;13.83;78.50
76577;DHT22;65441;44.748;37.600;2023-05-10T05:29:03;13.61;76.08
76577;DHT22;65441;44.748;37.600;2023-05-10T05:31:32;13.77;79.28
76577;DHT22;65441;44.748;37.600;2023-05-10T05:34:02;13.60;76.96
76577;DHT22;65441;44.748;37.600;2023-05-10T05:36:31;13.71;75.57
76577;DHT22;65441;44.748;37.600;2023-05-10T05:39:00;13.62;71.80
76577;DHT22;65441;44.748;37.600;2023-05-10T05:41:28;13.93;77.89
76577;DHT22;65441;44.748;37.600;2023-05-10T05:43:57;13.71;72.46
76577;DHT22;65441;44.748;37.600;2023-05-10T05:46:26;14.00;76.58
76577;DHT22;65441;44.748;37.600;2023-05-10T05:48:55;14.41;75.35
76577;DHT22;65441;44.748;37.600;2023-05-10T05:51:25;14.20;75.35
76577;DHT22;65441;44.748;37.600;2023-05-10T05:53:54;14.18;70.07
76577;DHT22;65441;44.748;37.600;2023-05-10T05:56:22;14.12;74.80
76577;DHT22;65441;44.748;37.600;2023-05-10T05:58:52;14.33;75.02
76577;DHT22;65441;44.748;37.600;2023-05-10T06:01:21;14.01;70.36
76577;DHT22;65441;44.748;37.600;2023-05-10T06:03:49;14.26;74.47
76577;DHT22;65441;44.748;37.600;2023-05-10T06:06:18;14.38;70.81
76577;DHT22;65441;44.748;37.600;2023-05-10T06:08:48;14.72;71.64
76577;DHT22;65441;44.748;37.600;2023-05-10T06:11:17;15.25;71.16
76577;DHT22;65441;44.748;37.600;2023-05-10T06:13:46;15.14;72.05
76577;DHT22;65441;44.748;37.600;2023-05-10T06:16:15;15.30;71.45
76577;DHT22;65441;44.748;37.600;2023-05-10T06:18:44;15.14;67.47
76577;DHT22;65441;44.748;37.600;2023-05-10T06:21:13;15.00;68.84
76577;DHT22;65441;44.748;37.600;2023-05-10T06:23:43;14.84;70.16
76577;DHT22;65441;44.748;37.600;2023-05-10T06:26:13;14.86;67.10
76577;DHT22;65441;44.748;37.600;2023-05-10T06:28:42;15.41;71.00
76577;DHT22;65441;44.748;37.600;2023-05-10T06:31:11;15.32;70.47
76577;DHT22;65441;44.748;37.600;2023-05-10T06:33:40;15.03;65.19
76577;DHT22;65441;44.748;37.600;2023-05-10T06:36:12;15.55;64.53
76577;DHT22;65441;44.748;37.600;2023-05-10T06:38:41;15.56;70.15
76577;DHT22;65441;44.748;37.600;2023-05-10T06:41:10;15.84;61.71
76577;DHT22;65441;44.748;37.600;2023-05-10T06:43:40;16.12;65.17
76577;DHT22;65441;44.748;37.600;2023-05-10T06:46:10;16.39;63.85
76577;DHT22;65441;44.748;37.600;2023-05-10T06:48:39;16.63;63.74
76577;DHT22;65441;44.748;37.600;2023-05-10T06:51:08;16.89;62.76
76577;DHT22;65441;44.748;37.600;2023-05-10T06:53:37;17.17;62.02
76577;DHT22;65441;44.748;37.600;2023-05-10T06:56:06;17.26;56.68
76577;DHT22;65441;44.748;37.600;2023-05-10T06:58:35;17.46;57.33
76577;DHT22;65441;44.748;37.600;2023-05-10T07:01:05;17.84;59.37
76577;DHT22;65441;44.748;37.600;2023-05-10T07:03:34;18.35;55.29
76577;DHT22;65441;44.748;37.600;2023-05-10T07:06:04;18.76;53.85
76577;DHT22;65441;44.748;37.600;2023-05-10T07:08:34;19.00;55.62
76577;DHT22;65441;44.748;37.600;2023-05-10T07:11:04;19.36;55.52
76577;DHT22;65441;44.748;37.600;2023-05-10T07:13:34;19.07;48.79
76577;DHT22;65441;44.748;37.600;2023-05-10T07:16:05;19.02;50.27
76577;DHT22;65441;44.748;37.600;2023-05-10T07:18:34;19.32;53.24
76577;DHT22;65441;44.748;37.600;2023-05-10T07:21:03;19.31;52.20
76577;DHT22;65441;44.748;37.600;2023-05-10T07:23:32;18.74;53.62
76577;DHT22;65441;44.748;37.600;2023-05-10T07:26:01;18.30;53.52
76577;DHT22;65441;44.748;37.600;2023-05-10T07:28:30;17.93;53.59
76577;DHT22;65441;44.748;37.600;2023-05-10T07:30:59;17.34;56.84
76577;DHT22;65441;44.748;37.600;2023-05-10T07:33:29;16.99;58.74
76577;DHT22;65441;44.748;37.600;2023-05-10T07:35:58;17.17;61.43
76577;DHT22;65441;44.748;37.600;2023-05-10T07:38:27;17.01;58.92
76577;DHT22;65441;44.748;37.600;2023-05-10T07:40:56;16.75;55.30
76577;DHT22;65441;44.748;37.600;2023-05-10T07:43:25;16.74;59.60
76577;DHT22;65441;44.748;37.600;2023-05-10T07:45:54;16.70;56.05
76577;DHT22;65441;44.748;37.600;2023-05-10T07:48:24;16.47;59.77
76577;DHT22;65441;44.748;37.600;2023-05-10T07:50:55;16.57;61.77
76577;DHT22;65441;44.748;37.600;2023-05-10T07:53:24;16.33;60.22
76577;DHT22;65441;44.748;37.600;2023-05-10T07:55:56;16.50;65.04
76577;DHT22;65441;44.748;37.600;2023-05-10T07:58:26;16.79;61.45
76577;DHT22;65441;44.748;37.600;2023-05-10T08:00:55;16.84;67.18
76577;DHT22;65441;44.748;37.600;2023-05-10T08:03:24;16.67;60.49
76577;DHT22;65441;44.748;37.600;2023-05-10T08:05:55;16.51;57.03
76577;DHT22;65441;44.748;37.600;2023-05-10T08:08:24;16.71;61.39
76577;DHT22;65441;44.748;37.600;2023-05-10T08:10:52;16.75;57.61
76577;DHT22;65441;44.748;37.600;2023-05-10T08:13:21;16.93;61.48
76577;DHT22;65441;44.748;37.600;2023-05-10T08:15:50;17.18;56.75
76577;DHT22;65441;44.748;37.600;2023-05-10T08:18:20;17.18;56.47
76577;DHT22;65441;44.748;37.600;2023-05-10T08:20:49;17.16;59.82
76577;DHT22;65441;44.748;37.600;2023-05-10T08:23:19;17.10;54.19
76577;DHT22;65441;44.748;37.600;2023-05-10T08:25:48;16.92;57.80
76577;DHT22;65441;44.748;37.600;2023-05-10T08:28:17;17.08;58.08
76577;DHT22;65441;44.748;37.600;2023-05-10T08:30:46;16.94;55.09
76577;DHT22;65441;44.748;37.600;2023-05-10T08:33:15;17.01;54.36
76577;DHT22;65441;44.748;37.600;2023-05-10T08:35:44;17.00;56.45
76577;DHT22;65441;44.748;37.600;2023-05-10T08:38:13;17.44;55.78
76577;DHT22;65441;44.748;37.600;2023-05-10T08:40:44;17.96;52.90
76577;DHT22;65441;44.748;37.600;2023-05-10T08:43:14;18.02;50.95
76577;DHT22;65441;44.748;37.600;2023-05-10T08:45:44;18.14;49.52
76577;DHT22;65441;44.748;37.600;2023-05-10T08:48:14;18.56;54.16
76577;DHT22;65441;44.748;37.600;2023-05-10T08:50:44;18.95;52.70
76577;DHT22;65441;44.748;37.600;2023-05-10T08:53:15;18.86;51.16
76577;DHT22;65441;44.748;37.600;2023-05-10T08:55:46;19.07;53.52
76577;DHT22;65441;44.748;37.600;2023-05-10T08:58:16;19.52;54.48
76577;DHT22;65441;44.748;37.600;2023-05-10T09:00:48;19.36;50.47
76577;DHT22;65441;44.748;37.600;2023-05-10T09:03:18;19.38;53.46
76577;DHT22;65441;44.748;37.600;2023-05-10T09:05:47;19.31;51.14
76577;DHT22;65441;44.748;37.600;2023-05-10T09:08:17;19.37;51.00
76577;DHT22;65441;44.748;37.600;2023-05-10T09:10:48;19.31;53.39
76577;DHT22;65441;44.748;37.600;2023-05-10T09:13:17;19.02;50.90
76577;DHT22;65441;44.748;37.600;2023-05-10T09:15:47;19.12;53.92
76577;DHT22;65441;44.748;37.600;2023-05-10T09:18:16;18.20;50.13
76577;DHT22;65441;44.748;37.600;2023-05-10T09:20:45;18.10;55.57
76577;DHT22;65441;44.748;37.600;2023-05-10T09:23:14;17.75;59.96
76577;DHT22;65441;44.748;37.600;2023-05-10T09:25:43;17.54;60.58
76577;DHT22;65441;44.748;37.600;2023-05-10T09:28:14;17.55;59.96
76577;DHT22;65441;44.748;37.600;2023-05-10T09:30:42;18.03;54.31
76577;DHT22;65441;44.748;37.600;2023-05-10T09:33:11;18.14;55.54
76577;DHT22;65441;44.748;37.600;2023-05-10T09:35:41;18.34;57.10
76577;DHT22;65441;44.748;37.600;2023-05-10T09:38:10;18.17;55.65
76577;DHT22;65441;44.748;37.600;2023-05-10T09:40:39;18.33;54.55
76577;DHT22;65441;44.748;37.600;2023-05-10T09:43:08;17.99;58.50
76577;DHT22;65441;44.748;37.600;2023-05-10T09:45:41;17.84;53.35
76577;DHT22;65441;44.748;37.600;2023-05-10T09:48:10;17.83;56.23
76577;DHT22;65441;44.748;37.600;2023-05-10T09:50:39;17.84;55.04
76577;DHT22;65441;44.748;37.600;2023-05-10T09:53:08;18.03;53.69
76577;DHT22;65441;44.748;37.600;2023-05-10T09:55:44;18.00;56.72
76577;DHT22;65441;44.748;37.600;2023-05-10T09:58:14;18.05;54.15
76577;DHT22;65441;44.748;37.600;2023-05-10T10:00:46;17.55;54.44
76577;DHT22;65441;44.748;37.600;2023-05-10T10:03:20;17.56;54.23
76577;DHT22;65441;44.748;37.600;2023-05-10T10:05:52;17.68;56.88
76577;DHT22;65441;44.748;37.600;2023-05-10T10:08:23;17.63;52.59
76577;DHT22;65441;44.748;37.600;2023-05-10T10:10:53;17.40;54.78
76577;DHT22;65441;44.748;37.600;2023-05-10T10:13:22;17.60;52.93
76577;DHT22;65441;44.748;37.600;2023-05-10T10:15:54;17.70;54.31
76577;DHT22;65441;44.748;37.600;2023-05-10T10:18:23;17.50;53.78
76577;DHT22;65441;44.748;37.600;2023-05-10T10:20:54;17.24;54.94
76577;DHT22;65441;44.748;37.600;2023-05-10T10:23:25;17.25;54.52
76577;DHT22;65441;44.748;37.600;2023-05-10T10:25:54;17.31;53.30
76577;DHT22;65441;44.748;37.600;2023-05-10T10:28:32;17.74;51.22
76577;DHT22;65441;44.748;37.600;2023-05-10T10:31:23;17.96;49.60
76577;DHT22;65441;44.748;37.600;2023-05-10T10:34:00;18.34;50.47
76577;DHT22;65441;44.748;37.600;2023-05-10T10:36:30;18.38;56.53
76577;DHT22;65441;44.748;37.600;2023-05-10T10:39:01;18.57;53.21
76577;DHT22;65441;44.748;37.600;2023-05-10T10:41:33;18.20;54.46
76577;DHT22;65441;44.748;37.600;2023-05-10T10:44:38;17.41;59.24
76577;DHT22;65441;44.748;37.600;2023-05-10T10:47:22;17.51;57.77
76577;DHT22;65441;44.748;37.600;2023-05-10T10:50:03;17.16;56.84
76577;DHT22;65441;44.748;37.600;2023-05-10T10:52:33;17.23;57.47
76577;DHT22;65441;44.748;37.600;2023-05-10T10:55:03;17.45;56.65
76577;DHT22;65441;44.748;37.600;2023-05-10T10:57:43;18.23;54.01
76577;DHT22;65441;44.748;37.600;2023-05-10T11:00:23;18.66;55.20
76577;DHT22;65441;44.748;37.600;2023-05-10T11:02:56;18.46;58.95
76577;DHT22;65441;44.748;37.600;2023-05-10T11:05:37;18.26;53.01
76577;DHT22;65441;44.748;37.600;2023-05-10T11:08:10;18.37;53.56
76577;DHT22;65441;44.748;37.600;2023-05-10T11:10:39;18.24;51.52
76577;DHT22;65441;44.748;37.600;2023-05-10T11:13:09;17.95;50.18
76577;DHT22;65441;44.748;37.600;2023-05-10T11:15:39;18.13;55.07
76577;DHT22;65441;44.748;37.600;2023-05-10T11:18:20;18.00;52.12
76577;DHT22;65441;44.748;37.600;2023-05-10T11:20:50;18.27;54.07
76577;DHT22;65441;44.748;37.600;2023-05-10T11:23:20;18.49;55.07
76577;DHT22;65441;44.748;37.600;2023-05-10T11:25:49;19.06;47.39
76577;DHT22;65441;44.748;37.600;2023-05-10T11:28:18;19.02;55.47
76577;DHT22;65441;44.748;37.600;2023-05-10T11:30:48;19.13;50.21
76577;DHT22;65441;44.748;37.600;2023-05-10T11:33:19;18.93;49.39
76577;DHT22;65441;44.748;37.600;2023-05-10T11:35:48;18.46;51.25
76577;DHT22;65441;44.748;37.600;2023-05-10T11:38:17;18.17;53.72
76577;DHT22;65441;44.748;37.600;2023-05-10T11:40:46;18.56;59.99
76577;DHT22;65441;44.748;37.600;2023-05-10T11:43:15;18.85;52.39
76577;DHT22;65441;44.748;37.600;2023-05-10T11:45:45;18.62;53.78
76577;DHT22;65441;44.748;37.600;2023-05-10T11:48:14;18.08;51.29
76577;DHT22;65441;44.748;37.600;2023-05-10T11:50:46;18.15;52.67
76577;DHT22;65441;44.748;37.600;2023-05-10T11:53:15;18.02;50.65
76577;DHT22;65441;44.748;37.600;2023-05-10T11:55:44;18.14;53.46
76577;DHT22;65441;44.748;37.600;2023-05-10T11:58:13;18.07;53.67
76577;DHT22;65441;44.748;37.600;2023-05-10T12:00:42;18.26;52.48
76577;DHT22;65441;44.748;37.600;2023-05-10T12:03:11;18.42;52.45
76577;DHT22;65441;44.748;37.600;2023-05-10T12:05:40;18.59;54.78
76577;DHT22;65441;44.748;37.600;2023-05-10T12:08:15;18.58;46.25
76577;DHT22;65441;44.748;37.600;2023-05-10T12:10:44;18.66;51.27
76577;DHT22;65441;44.748;37.600;2023-05-10T12:13:14;18.87;51.84
76577;DHT22;65441;44.748;37.600;2023-05-10T12:15:43;18.38;48.28
76577;DHT22;65441;44.748;37.600;2023-05-10T12:18:13;18.42;51.16
76577;DHT22;65441;44.748;37.600;2023-05-10T12:20:42;18.27;48.15
76577;DHT22;65441;44.748;37.600;2023-05-10T12:23:14;18.28;54.11
76577;DHT22;65441;44.748;37.600;2023-05-10T12:25:43;18.42;51.28
76577;DHT22;65441;44.748;37.600;2023-05-10T12:28:12;18.14;50.40
76577;DHT22;65441;44.748;37.600;2023-05-10T12:30:41;18.03;51.40
76577;DHT22;65441;44.748;37.600;2023-05-10T12:33:12;18.14;49.42
76577;DHT22;65441;44.748;37.600;2023-05-10T12:35:46;17.77;50.48
76577;DHT22;65441;44.748;37.600;2023-05-10T12:38:27;17.93;51.42
76577;DHT22;65441;44.748;37.600;2023-05-10T12:40:57;17.76;47.51
76577;DHT22;65441;44.748;37.600;2023-05-10T12:43:27;18.00;51.24
76577;DHT22;65441;44.748;37.600;2023-05-10T12:45:56;17.77;47.81
76577;DHT22;65441;44.748;37.600;2023-05-10T12:48:25;17.78;51.28
76577;DHT22;65441;44.748;37.600;2023-05-10T12:50:56;17.98;49.25
76577;DHT22;65441;44.748;37.600;2023-05-10T12:53:26;17.77;47.06
76577;DHT22;65441;44.748;37.600;2023-05-10T12:55:55;17.60;48.50
76577;DHT22;65441;44.748;37.600;2023-05-10T12:58:24;17.67;48.65
76577;DHT22;65441;44.748;37.600;2023-05-10T13:00:53;17.73;48.96
76577;DHT22;65441;44.748;37.600;2023-05-10T13:03:23;18.07;51.84
76577;DHT22;65441;44.748;37.600;2023-05-10T13:05:52;18.49;49.95
76577;DHT22;65441;44.748;37.600;2023-05-10T13:08:21;18.26;50.92
76577;DHT22;65441;44.748;37.600;2023-05-10T13:10:52;18.40;48.80
76577;DHT22;65441;44.748;37.600;2023-05-10T13:13:20;18.12;50.01
76577;DHT22;65441;44.748;37.600;2023-05-10T13:15:49;17.75;48.69
76577;DHT22;65441;44.748;37.600;2023-05-10T13:18:18;17.88;49.72
76577;DHT22;65441;44.748;37.600;2023-05-10T13:20:47;17.99;50.85
76577;DHT22;65441;44.748;37.600;2023-05-10T13:23:17;18.08;51.17
76577;DHT22;65441;44.748;37.600;2023-05-10T13:25:46;17.63;48.05
76577;DHT22;65441;44.748;37.600;2023-05-10T13:28:16;17.31;51.27
76577;DHT22;65441;44.748;37.600;2023-05-10T13:30:45;17.40;53.58
76577;DHT22;65441;44.748;37.600;2023-05-10T13:33:14;17.24;52.89
76577;DHT22;65441;44.748;37.600;2023-05-10T13:35:44;17.20;57.83
76577;DHT22;65441;44.748;37.600;2023-05-10T13:38:13;17.20;52.30
76577;DHT22;65441;44.748;37.600;2023-05-10T13:40:42;17.18;52.96
76577;DHT22;65441;44.748;37.600;2023-05-10T13:43:10;17.24;51.04
76577;DHT22;65441;44.748;37.600;2023-05-10T13:45:41;17.32;51.05
76577;DHT22;65441;44.748;37.600;2023-05-10T13:48:10;17.10;54.21
76577;DHT22;65441;44.748;37.600;2023-05-10T13:50:39;17.19;59.97
76577;DHT22;65441;44.748;37.600;2023-05-10T13:53:07;17.08;53.46
76577;DHT22;65441;44.748;37.600;2023-05-10T13:55:36;16.86;57.05
76577;DHT22;65441;44.748;37.600;2023-05-10T13:58:05;17.03;61.60
76577;DHT22;65441;44.748;37.600;2023-05-10T14:00:34;17.06;52.48
76577;DHT22;65441;44.748;37.600;2023-05-10T14:03:05;17.31;54.49
76577;DHT22;65441;44.748;37.600;2023-05-10T14:05:36;17.43;52.01
76577;DHT22;65441;44.748;37.600;2023-05-10T14:08:05;17.03;51.66
76577;DHT22;65441;44.748;37.600;2023-05-10T14:10:36;16.73;54.97
76577;DHT22;65441;44.748;37.600;2023-05-10T14:13:05;16.71;58.22
76577;DHT22;65441;44.748;37.600;2023-05-10T14:15:35;16.47;55.29
76577;DHT22;65441;44.748;37.600;2023-05-10T14:18:05;16.43;56.97
76577;DHT22;65441;44.748;37.600;2023-05-10T14:20:34;16.88;63.86
76577;DHT22;65441;44.748;37.600;2023-05-10T14:23:03;17.04;56.92
76577;DHT22;65441;44.748;37.600;2023-05-10T14:25:32;17.37;60.70
76577;DHT22;65441;44.748;37.600;2023-05-10T14:28:01;17.32;51.39
76577;DHT22;65441;44.748;37.600;2023-05-10T14:30:31;16.60;50.56
76577;DHT22;65441;44.748;37.600;2023-05-10T14:33:02;16.60;55.41
76577;DHT22;65441;44.748;37.600;2023-05-10T14:35:32;16.50;52.84
76577;DHT22;65441;44.748;37.600;2023-05-10T14:38:02;16.32;56.16
76577;DHT22;65441;44.748;37.600;2023-05-10T14:40:30;16.36;52.81
76577;DHT22;65441;44.748;37.600;2023-05-10T14:42:59;16.24;58.16
76577;DHT22;65441;44.748;37.600;2023-05-10T14:45:28;16.32;54.73
76577;DHT22;65441;44.748;37.600;2023-05-10T14:47:57;16.52;52.35
76577;DHT22;65441;44.748;37.600;2023-05-10T14:50:26;16.58;51.79
76577;DHT22;65441;44.748;37.600;2023-05-10T14:52:56;16.44;56.60
76577;DHT22;65441;44.748;37.600;2023-05-10T14:55:25;16.42;55.04
76577;DHT22;65441;44.748;37.600;2023-05-10T14:57:56;16.20;52.87
76577;DHT22;65441;44.748;37.600;2023-05-10T15:00:25;16.10;52.30
76577;DHT22;65441;44.748;37.600;2023-05-10T15:02:54;16.39;53.34
76577;DHT22;65441;44.748;37.600;2023-05-10T15:05:23;15.98;51.30
76577;DHT22;65441;44.748;37.600;2023-05-10T15:07:51;16.13;57.95
76577;DHT22;65441;44.748;37.600;2023-05-10T15:10:22;16.40;53.84
76577;DHT22;65441;44.748;37.600;2023-05-10T15:12:50;16.28;54.24
76577;DHT22;65441;44.748;37.600;2023-05-10T15:15:20;16.31;59.15
76577;DHT22;65441;44.748;37.600;2023-05-10T15:17:48;16.33;59.99
76577;DHT22;65441;44.748;37.600;2023-05-10T15:20:17;16.60;60.20
76577;DHT22;65441;44.748;37.600;2023-05-10T15:22:46;16.19;50.75
76577;DHT22;65441;44.748;37.600;2023-05-10T15:25:14;16.26;54.87
76577;DHT22;65441;44.748;37.600;2023-05-10T15:27:45;16.30;59.72
76577;DHT22;65441;44.748;37.600;2023-05-10T15:30:14;16.11;51.52
76577;DHT22;65441;44.748;37.600;2023-05-10T15:32:43;16.17;62.62
76577;DHT22;65441;44.748;37.600;2023-05-10T15:35:11;15.75;54.09
76577;DHT22;65441;44.748;37.600;2023-05-10T15:37:41;15.75;55.33
76577;DHT22;65441;44.748;37.600;2023-05-10T15:40:10;15.42;58.57